Flight Track Log - Related Links

Times and Time Zones

All times are in EDT time to prevent confusion due to time zone crossing. See the CSN3434 flight status page for this flight to view local times or setup timezone preferences in your user account.

Time Position Orientation Groundspeed Altitude Reporting Facility
EDT Latitude Longitude Course Direction KTS MPH feet Rate Location/Type
Wed 12:04:11 PM 30.5910 103.9530 21° North 172 198 2,600  Level FlightAware ADS-B
Wed 12:04:33 PM 30.6090 103.9610 21° North 157 181 4,100 2,842 Climbing FlightAware ADS-B
Wed 12:05:08 PM 30.6450 103.9780 22° Northeast 219 252 5,300 2,190 Climbing FlightAware ADS-B
Wed 12:05:36 PM 30.6720 103.9910 22° Northeast 235 270 6,400 2,211 Climbing FlightAware ADS-B
Wed 12:06:05 PM 30.7030 103.9950 North 250 288 7,400 2,270 Climbing FlightAware ADS-B
Wed 12:06:13 PM 30.7120 103.9900 334° Northwest 252 290 7,800 2,625 Climbing FlightAware ADS-B
Wed 12:06:21 PM 30.7180 103.9830 315° West 257 296 8,100 2,160 Climbing FlightAware ADS-B
Wed 12:06:38 PM 30.7270 103.9600 294° West 263 303 8,700 2,217 Climbing FlightAware ADS-B
Wed 12:07:07 PM 30.7160 103.9230 251° West 266 306 9,800 2,049 Climbing FlightAware ADS-B
Wed 12:07:19 PM 30.7040 103.9130 216° Southwest 266 306 10,100 2,000 Climbing FlightAware ADS-B
Wed 12:08:13 PM 30.6450 103.8770 208° Southwest 270 311 12,000 2,057 Climbing FlightAware ADS-B
Wed 12:08:29 PM 30.6260 103.8700 198° South 271 312 12,500 1,953 Climbing FlightAware ADS-B
Wed 12:08:56 PM 30.5940 103.8850 158° South 277 319 13,400 2,093 Climbing FlightAware ADS-B
Wed 12:09:12 PM 30.5820 103.9050 125° Southeast 286 329 14,000 2,276 Climbing FlightAware ADS-B
Wed 12:09:54 PM 30.5580 103.9640 115° Southeast 293 337 15,600 2,308 Climbing FlightAware ADS-B
Wed 12:10:30 PM 30.5380 104.0160 114° Southeast 294 338 17,000 1,511 Climbing FlightAware ADS-B
Wed 12:12:13 PM 30.4810 104.1590 115° Southeast 334 384 19,100 1,490 Climbing FlightAware ADS-B
Wed 12:12:55 PM 30.4470 104.2400 116° Southeast 330 380 20,600 1,714 Climbing FlightAware ADS-B
Wed 12:13:51 PM 30.3840 104.2970 142° Southeast 331 381 21,900 1,380 Climbing FlightAware ADS-B
Wed 12:14:35 PM 30.3140 104.2860 188° South 340 391 22,900 1,244 Climbing FlightAware ADS-B
Wed 12:15:13 PM 30.2540 104.2770 187° South 347 399 23,600 1,125 Climbing FlightAware ADS-B
Wed 12:15:55 PM 30.1860 104.2670 187° South 355 409 24,400 698 Climbing FlightAware ADS-B
Wed 12:16:39 PM 30.1120 104.2560 187° South 381 438 24,600 135 Climbing FlightAware ADS-B
Wed 12:17:24 PM 30.0290 104.2440 187° South 412 474 24,600  Level FlightAware ADS-B
Wed 12:18:04 PM 29.9500 104.2330 187° South 437 503 24,600  Level FlightAware ADS-B
Wed 12:18:40 PM 29.8760 104.2220 187° South 459 528 24,600  Level FlightAware ADS-B
Wed 12:19:22 PM 29.7870 104.2080 188° South 474 545 24,600  Level FlightAware ADS-B
Wed 12:21:00 PM 29.6854 104.3605 127° Southeast  Level Estimated
Wed 12:22:00 PM 29.6231 104.4538 128° Southeast  Level Estimated
Wed 12:23:00 PM 29.5607 104.5469 128° Southeast  Level Estimated
Wed 12:23:29 PM 29.4020 103.9220 128° Southeast 473 544 24,600  Level FlightAware ADS-B
Wed 12:23:36 PM 29.3800 103.8970 225° Southwest 473 544 24,600 873 Level FlightAware ADS-B
Wed 12:24:24 PM 29.2780 103.8040 219° Southwest 476 548 25,400 1,159 Climbing FlightAware ADS-B
Wed 12:25:04 PM 29.2100 103.7430 218° Southwest 468 539 26,300 973 Climbing FlightAware ADS-B
Wed 12:25:38 PM 29.1510 103.6900 218° Southwest 475 547 26,600 581 Climbing FlightAware ADS-B
Wed 12:26:06 PM 29.1030 103.6480 217° Southwest 478 550 26,900 1,406 Climbing FlightAware ADS-B
Wed 12:26:42 PM 29.0410 103.5920 218° Southwest 462 532 28,100 1,737 Climbing FlightAware ADS-B
Wed 12:27:22 PM 28.9740 103.5320 218° Southwest 452 520 29,100 750 Climbing FlightAware ADS-B
Wed 12:28:02 PM 28.9090 103.4690 220° Southwest 469 540 29,100  Level FlightAware ADS-B
Wed 12:28:42 PM 28.8450 103.4000 223° Southwest 474 545 29,100  Level FlightAware ADS-B
Wed 12:29:28 PM 28.7730 103.3230 223° Southwest 484 557 29,100  Level FlightAware ADS-B
Wed 12:30:21 PM 28.6860 103.2300 223° Southwest 488 562 29,100 1,102 Level FlightAware ADS-B
Wed 12:31:06 PM 28.6100 103.1490 223° Southwest 459 528 30,900 1,674 Climbing FlightAware ADS-B
Wed 12:31:47 PM 28.5480 103.0830 223° Southwest 458 527 31,500 614 Climbing FlightAware ADS-B
Wed 12:32:34 PM 28.4690 103.0290 211° Southwest 457 526 31,800 214 Climbing FlightAware ADS-B
Wed 12:33:11 PM 28.4110 102.9920 209° Southwest 457 526 31,800 868 Level FlightAware ADS-B
Wed 12:33:50 PM 28.3100 102.9720 190° South 461 531 32,900 765 Climbing FlightAware ADS-B
Wed 12:34:53 PM 28.1830 102.9480 189° South 462 532 33,100 121 Climbing FlightAware ADS-B
Wed 12:35:29 PM 28.1180 102.9390 187° South 462 532 33,100  Level FlightAware ADS-B
Wed 12:36:17 PM 28.0310 102.9270 187° South 462 532 33,100  Level FlightAware ADS-B
Wed 12:36:53 PM 27.9660 102.9180 187° South 462 532 33,100  Level FlightAware ADS-B
Wed 12:37:57 PM 27.7670 103.0440 151° Southeast 499 574 33,100  Level FlightAware ADS-B
Wed 12:38:34 PM 27.6950 103.0580 170° South 499 574 33,100  Level FlightAware ADS-B
Wed 12:39:10 PM 27.6260 103.0720 170° South 499 574 33,100  Level FlightAware ADS-B
Wed 12:39:46 PM 27.5560 103.0860 170° South 499 574 33,100  Level FlightAware ADS-B
Wed 12:40:34 PM 27.4630 103.1040 170° South 499 574 33,100  Level FlightAware ADS-B
Wed 12:41:10 PM 27.3940 103.1180 170° South 499 574 33,100  Level FlightAware ADS-B
Wed 12:41:59 PM 27.2990 103.1370 170° South 499 574 33,100  Level FlightAware ADS-B
Wed 12:42:35 PM 27.2300 103.1500 170° South 499 574 33,100  Level FlightAware ADS-B
Wed 12:43:24 PM 27.1350 103.1690 170° South 499 574 33,100  Level FlightAware ADS-B
Wed 12:44:02 PM 27.0610 103.1840 170° South 499 574 33,100  Level FlightAware ADS-B
Wed 12:44:38 PM 26.9920 103.1970 170° South 499 574 33,100  Level FlightAware ADS-B
Wed 12:45:24 PM 26.9030 103.2150 170° South 499 574 33,100  Level FlightAware ADS-B
Wed 12:46:04 PM 27.2100 103.9350 64° Northeast 475 547 33,100  Level FlightAware ADS-B
Wed 12:46:40 PM 27.1930 104.0120 104° East 475 547 33,100  Level FlightAware ADS-B
Wed 12:47:16 PM 27.1770 104.0850 104° East 475 547 33,100  Level FlightAware ADS-B
Wed 12:48:04 PM 27.1550 104.1830 104° East 475 547 33,100  Level FlightAware ADS-B
Wed 12:48:40 PM 27.1390 104.2570 104° East 475 547 33,100  Level FlightAware ADS-B
Wed 12:49:29 PM 27.1160 104.3560 105° East 475 547 33,100  Level FlightAware ADS-B
Wed 12:50:05 PM 27.1000 104.4300 104° East 475 547 33,100  Level FlightAware ADS-B
Wed 12:50:53 PM 27.0780 104.5270 104° East 475 547 33,100  Level FlightAware ADS-B
Wed 12:51:41 PM 27.0570 104.6250 104° East 475 547 33,100  Level FlightAware ADS-B
Wed 12:52:17 PM 27.0400 104.6980 105° East 475 547 33,100  Level FlightAware ADS-B
Wed 12:53:06 PM 27.0180 104.7980 104° East 475 547 33,100  Level FlightAware ADS-B
Wed 12:53:42 PM 27.0020 104.8710 104° East 475 547 33,100  Level FlightAware ADS-B
Wed 12:54:28 PM 26.9810 104.9650 104° East 475 547 33,100  Level FlightAware ADS-B
Wed 12:55:04 PM 26.9650 105.0380 104° East 475 547 33,100  Level FlightAware ADS-B
Wed 12:55:52 PM 26.9430 105.1360 104° East 475 547 33,100  Level FlightAware ADS-B
Wed 12:58:00 PM 26.8446 105.3542 117° Southeast  Level Estimated
Wed 12:59:00 PM 26.7984 105.4563 117° Southeast  Level Estimated
Wed 01:00:00 PM 26.7521 105.5583 117° Southeast  Level Estimated
Wed 01:01:00 PM 26.7057 105.6603 117° Southeast  Level Estimated
Wed 01:02:00 PM 26.6592 105.7622 117° Southeast  Level Estimated
Wed 01:03:00 PM 26.6127 105.8640 117° Southeast  Level Estimated
Wed 01:04:00 PM 26.5661 105.9657 117° Southeast  Level Estimated
Wed 01:05:00 PM 26.5194 106.0673 117° Southeast  Level Estimated
Wed 01:06:00 PM 26.4727 106.1689 117° Southeast  Level Estimated
Wed 01:07:00 PM 26.4259 106.2704 117° Southeast  Level Estimated
Wed 01:08:00 PM 26.3790 106.3717 117° Southeast  Level Estimated
Wed 01:09:00 PM 26.3320 106.4731 117° Southeast  Level Estimated
Wed 01:10:00 PM 26.2850 106.5743 117° Southeast  Level Estimated
Wed 01:11:00 PM 26.2379 106.6754 117° Southeast  Level Estimated
Wed 01:12:00 PM 26.1907 106.7765 117° Southeast  Level Estimated
Wed 01:13:00 PM 26.1435 106.8774 118° Southeast  Level Estimated
Wed 01:14:00 PM 26.0962 106.9783 118° Southeast  Level Estimated
Wed 01:15:00 PM 26.0488 107.0791 118° Southeast  Level Estimated
Wed 01:16:00 PM 26.0014 107.1799 118° Southeast  Level Estimated
Wed 01:17:00 PM 25.9538 107.2805 118° Southeast  Level Estimated
Wed 01:18:00 PM 25.9062 107.3811 118° Southeast  Level Estimated
Wed 01:19:00 PM 25.8586 107.4816 118° Southeast  Level Estimated
Wed 01:20:00 PM 25.8109 107.5820 118° Southeast  Level Estimated
Wed 01:21:00 PM 25.7631 107.6823 118° Southeast  Level Estimated
Wed 01:22:00 PM 25.7152 107.7826 118° Southeast  Level Estimated
Wed 01:23:00 PM 25.6673 107.8827 118° Southeast  Level Estimated
Wed 01:24:00 PM 25.6193 107.9828 118° Southeast  Level Estimated
Wed 01:25:00 PM 25.5712 108.0828 118° Southeast  Level Estimated
Wed 01:26:00 PM 25.5231 108.1827 118° Southeast  Level Estimated
Wed 01:27:00 PM 25.4748 108.2826 118° Southeast  Level Estimated
Wed 01:28:00 PM 25.4266 108.3823 118° Southeast  Level Estimated
Wed 01:29:00 PM 25.3782 108.4820 118° Southeast  Level Estimated
Wed 01:30:00 PM 25.3298 108.5816 118° Southeast  Level Estimated
Wed 01:31:00 PM 25.2813 108.6811 118° Southeast  Level Estimated
Wed 01:32:00 PM 25.2328 108.7806 118° Southeast  Level Estimated
Wed 01:33:00 PM 25.1842 108.8799 118° Southeast  Level Estimated
Wed 01:34:00 PM 25.1355 108.9792 118° Southeast  Level Estimated
Wed 01:35:00 PM 25.0868 109.0784 118° Southeast  Level Estimated
Wed 01:36:00 PM 25.0380 109.1776 119° Southeast  Level Estimated
Wed 01:37:00 PM 24.9891 109.2766 119° Southeast  Level Estimated
Wed 01:38:00 PM 24.9402 109.3756 119° Southeast  Level Estimated
Wed 01:39:00 PM 24.8912 109.4745 119° Southeast  Level Estimated
Wed 01:39:16 PM 24.4940 110.8370 119° Southeast 458 527 33,100  Level FlightAware ADS-B
Wed 01:40:00 PM 24.8421 109.5733 119° Southeast  Level Estimated
Wed 01:40:02 PM 24.4470 110.9110 125° Southeast 458 527 33,100  Level FlightAware ADS-B
Wed 01:40:38 PM 24.4090 110.9690 126° Southeast 458 527 33,100  Level FlightAware ADS-B
Wed 01:41:22 PM 24.3370 111.0780 126° Southeast 455 524 33,100  Level FlightAware ADS-B
Wed 01:41:58 PM 24.2880 111.1520 126° Southeast 456 525 33,100  Level FlightAware ADS-B
Wed 01:42:38 PM 24.2460 111.2170 125° Southeast 456 525 33,100  Level FlightAware ADS-B
Wed 01:43:27 PM 24.1960 111.2960 125° Southeast 456 525 33,100  Level FlightAware ADS-B
Wed 01:44:05 PM 24.1110 111.3770 139° Southeast 464 534 33,100  Level FlightAware ADS-B
Wed 01:44:53 PM 24.0380 111.4560 135° Southeast 463 533 33,100 -150 Level FlightAware ADS-B
Wed 01:45:25 PM 23.9850 111.5050 140° Southeast 449 517 32,900 -539 Descending FlightAware ADS-B
Wed 01:46:22 PM 23.8770 111.5310 168° South 424 488 32,300 -638 Descending FlightAware ADS-B
Wed 01:46:59 PM 23.8030 111.5310 180° South 402 463 31,900 -594 Descending FlightAware ADS-B
Wed 01:48:03 PM 23.6860 111.5310 180° South 404 465 31,300 -407 Descending FlightAware ADS-B
Wed 01:48:57 PM 23.5940 111.5320 179° South 404 465 31,100 -702 Descending FlightAware ADS-B
Wed 01:49:37 PM 23.5100 111.5320 180° South 388 447 30,200 -1,059 Descending FlightAware ADS-B
Wed 01:50:22 PM 23.4300 111.5340 179° South 383 441 29,600 -767 Descending FlightAware ADS-B
Wed 01:51:03 PM 23.3570 111.5360 179° South 382 440 29,100 -667 Descending FlightAware ADS-B
Wed 01:51:25 PM 23.3230 111.5490 161° South 387 445 28,900 -577 Descending FlightAware ADS-B
Wed 01:51:55 PM 23.2860 111.5950 131° Southeast 409 471 28,600 -632 Descending FlightAware ADS-B
Wed 01:52:41 PM 23.2610 111.6900 106° East 449 517 28,100 -472 Descending FlightAware ADS-B
Wed 01:53:24 PM 23.2430 111.7800 102° East 461 531 27,900 -1,347 Descending FlightAware ADS-B
Wed 01:54:19 PM 23.2090 111.9150 105° East 480 552 25,900 -1,500 Descending FlightAware ADS-B
Wed 01:55:08 PM 23.1840 112.0200 105° East 482 555 25,300 -1,750 Descending FlightAware ADS-B
Wed 01:55:55 PM 23.1540 112.1440 105° East 477 549 23,100 -2,242 Descending FlightAware ADS-B
Wed 01:56:39 PM 23.1300 112.2410 105° East 445 512 21,900 -1,575 Descending FlightAware ADS-B
Wed 01:57:15 PM 23.1120 112.3160 105° East 421 484 21,000 -1,518 Descending FlightAware ADS-B
Wed 01:58:02 PM 23.0900 112.4090 104° East 398 458 19,800 -876 Descending FlightAware ADS-B
Wed 01:58:44 PM 23.0740 112.4780 104° East 397 457 19,700 -1,229 Descending FlightAware ADS-B
Wed 01:59:25 PM 23.0650 112.5620 97° East 350 403 18,100 -1,448 Descending FlightAware ADS-B
Wed 02:00:11 PM 23.0600 112.6420 94° East 325 374 17,600 -690 Descending FlightAware ADS-B
Wed 02:00:52 PM 23.0560 112.7070 94° East 326 375 17,100 -800 Descending FlightAware ADS-B
Wed 02:01:41 PM 23.0500 112.7890 95° East 328 377 16,400 -800 Descending FlightAware ADS-B
Wed 02:02:22 PM 23.0460 112.8530 94° East 323 372 15,900 -717 Descending FlightAware ADS-B
Wed 02:03:13 PM 23.0400 112.9340 95° East 291 335 15,300 -652 Descending FlightAware ADS-B
Wed 02:03:54 PM 23.0360 112.9920 94° East 275 316 14,900 -600 Descending FlightAware ADS-B
Wed 02:04:33 PM 23.0320 113.0460 95° East 272 313 14,500 -585 Descending FlightAware ADS-B
Wed 02:05:16 PM 23.0280 113.1040 94° East 272 313 14,100 -488 Descending FlightAware ADS-B
Wed 02:05:59 PM 23.0240 113.1640 94° East 265 305 13,800 -257 Descending FlightAware ADS-B
Wed 02:06:26 PM 23.0180 113.1980 101° East 263 303 13,800  Level FlightAware ADS-B
Wed 02:06:59 PM 23.0030 113.2380 112° Southeast 266 306 13,800  Level FlightAware ADS-B
Wed 02:07:37 PM 23.0210 113.2840 67° East 254 292 13,800 -83 Level FlightAware ADS-B
Wed 02:08:11 PM 23.0430 113.3200 56° Northeast 242 278 13,700 -711 Descending FlightAware ADS-B
Wed 02:08:53 PM 23.0680 113.3620 57° Northeast 239 275 12,900 -977 Descending FlightAware ADS-B
Wed 02:09:37 PM 23.0940 113.4050 57° Northeast 221 254 12,300 -808 Descending FlightAware ADS-B
Wed 02:09:45 PM 23.0950 113.4150 84° East 214 246 12,200 -857 Descending FlightAware ADS-B
Wed 02:10:05 PM 23.0870 113.4320 117° Southeast 198 228 11,900 -857 Descending FlightAware ADS-B
Wed 02:10:13 PM 23.0800 113.4370 147° Southeast 193 222 11,800 -980 Descending FlightAware ADS-B
Wed 02:10:54 PM 23.0480 113.4440 169° South 182 209 11,100 -723 Descending FlightAware ADS-B
Wed 02:11:36 PM 23.0210 113.4510 167° South 182 209 10,800 -196 Descending FlightAware ADS-B
Wed 02:12:26 PM 22.9710 113.4620 169° South 182 209 10,800  Level FlightAware ADS-B
Wed 02:13:05 PM 22.9380 113.4700 167° South 182 209 10,800  Level FlightAware ADS-B
Wed 02:13:50 PM 22.9010 113.4790 167° South 182 209 10,800  Level FlightAware ADS-B
Wed 02:14:30 PM 22.8690 113.4750 187° South 186 214 10,800  Level FlightAware ADS-B
Wed 02:15:11 PM 22.8340 113.4610 200° South 186 214 10,800  Level FlightAware ADS-B
Wed 02:15:51 PM 22.8020 113.4480 201° Southwest 186 214 10,800 -837 Level FlightAware ADS-B
Wed 02:16:37 PM 22.7610 113.4330 199° South 214 246 9,600 -1,378 Descending FlightAware ADS-B
Wed 02:17:05 PM 22.7350 113.4220 201° Southwest 205 236 9,100 -612 Descending FlightAware ADS-B
Wed 02:17:26 PM 22.7170 113.4150 200° South 181 208 9,100  Level FlightAware ADS-B
Wed 02:17:50 PM 22.7000 113.4080 201° Southwest 178 205 9,100  Level FlightAware ADS-B
Wed 02:18:07 PM 22.6850 113.4020 200° South 181 208 9,100  Level FlightAware ADS-B
Wed 02:18:31 PM 22.6650 113.3970 193° South 179 206 9,100  Level FlightAware ADS-B
Wed 02:19:04 PM 22.6410 113.3920 191° South 177 204 9,100  Level FlightAware ADS-B
Wed 02:19:27 PM 22.6200 113.3880 190° South 178 205 9,100  Level FlightAware ADS-B
Wed 02:19:45 PM 22.6050 113.3860 187° South 179 206 9,100  Level FlightAware ADS-B
Wed 02:20:11 PM 22.5840 113.3820 190° South 181 208 9,100  Level FlightAware ADS-B
Wed 02:20:24 PM 22.5730 113.3800 190° South 181 208 9,100  Level FlightAware ADS-B
Wed 02:20:49 PM 22.5520 113.3760 190° South 179 206 9,100  Level FlightAware ADS-B
Wed 02:21:21 PM 22.5260 113.3710 190° South 180 207 9,100 -97 Level FlightAware ADS-B
Wed 02:21:51 PM 22.5020 113.3670 189° South 174 200 9,000 -316 Descending FlightAware ADS-B
Wed 02:21:59 PM 22.4950 113.3660 188° South 172 198 8,900 -1,286 Descending FlightAware ADS-B
Wed 02:22:19 PM 22.4810 113.3740 152° Southeast 172 198 8,400 -1,313 Descending FlightAware ADS-B
Wed 02:22:31 PM 22.4780 113.3830 110° East 172 198 8,200 -450 Descending FlightAware ADS-B
Wed 02:22:59 PM 22.4830 113.4070 77° East 180 207 8,100 -150 Descending FlightAware ADS-B
Wed 02:23:11 PM 22.4860 113.4180 74° East 181 208 8,100  Level FlightAware ADS-B
Wed 02:23:43 PM 22.4930 113.4450 74° East 177 204 8,100 -407 Level FlightAware ADS-B
Wed 02:24:10 PM 22.4990 113.4670 74° East 176 203 7,700 -964 Descending FlightAware ADS-B
Wed 02:24:39 PM 22.5060 113.4920 73° East 173 199 7,200 -679 Descending FlightAware ADS-B
Wed 02:25:03 PM 22.5170 113.5100 57° Northeast 186 214 7,100 -154 Descending FlightAware ADS-B
Wed 02:25:18 PM 22.5280 113.5130 14° North 190 219 7,100  Level FlightAware ADS-B
Wed 02:25:47 PM 22.5540 113.5110 356° North 188 216 7,100  Level FlightAware ADS-B
Wed 02:25:59 PM 22.5650 113.5100 355° North 188 216 7,100  Level FlightAware ADS-B
Wed 02:26:28 PM 22.5900 113.5080 356° North 188 216 7,100 -197 Level FlightAware ADS-B
Wed 02:27:00 PM 22.6190 113.5060 356° North 187 215 6,900 -724 Descending FlightAware ADS-B
Wed 02:27:26 PM 22.6410 113.5050 358° North 189 217 6,400 -1,050 Descending FlightAware ADS-B
Wed 02:27:40 PM 22.6540 113.5040 356° North 189 217 6,200 -429 Descending FlightAware ADS-B
Wed 02:28:08 PM 22.6770 113.5020 355° North 189 217 6,100 -100 Descending FlightAware ADS-B
Wed 02:28:40 PM 22.7060 113.5000 356° North 189 217 6,100  Level FlightAware ADS-B
Wed 02:29:00 PM 22.7240 113.4980 354° North 188 216 6,100  Level FlightAware ADS-B
Wed 02:29:26 PM 22.7450 113.4970 357° North 187 215 6,100  Level FlightAware ADS-B
Wed 02:29:54 PM 22.7700 113.4950 356° North 186 214 6,100  Level FlightAware ADS-B
Wed 02:30:18 PM 22.7910 113.4930 355° North 185 213 6,100 -429 Level FlightAware ADS-B
Wed 02:30:50 PM 22.8180 113.5000 13° North 179 206 5,700 -842 Descending FlightAware ADS-B
Wed 02:31:15 PM 22.8380 113.5050 13° North 182 209 5,300 -818 Descending FlightAware ADS-B
Wed 02:31:34 PM 22.8530 113.5100 17° North 176 203 5,100 -316 Descending FlightAware ADS-B
Wed 02:31:53 PM 22.8630 113.5230 50° Northeast 170 196 5,100  Level FlightAware ADS-B
Wed 02:32:05 PM 22.8670 113.5310 62° Northeast 169 194 5,100  Level FlightAware ADS-B
Wed 02:32:22 PM 22.8730 113.5450 65° Northeast 169 194 5,100 -140 Level FlightAware ADS-B
Wed 02:32:48 PM 22.8830 113.5650 62° Northeast 167 192 5,000 -667 Descending FlightAware ADS-B
Wed 02:33:16 PM 22.8920 113.5850 64° Northeast 164 189 4,500 -792 Descending FlightAware ADS-B
Wed 02:33:41 PM 22.9000 113.6040 65° Northeast 154 177 4,300 -517 Descending FlightAware ADS-B
Wed 02:34:14 PM 22.8890 113.6250 120° Southeast 161 185 4,000 -500 Descending FlightAware ADS-B
Wed 02:34:41 PM 22.8760 113.6440 127° Southeast 173 199 3,800 -462 Descending FlightAware ADS-B
Wed 02:34:53 PM 22.8700 113.6520 129° Southeast 174 200 3,700 -419 Descending FlightAware ADS-B
Wed 02:35:24 PM 22.8540 113.6740 128° Southeast 174 200 3,500 -500 Descending FlightAware ADS-B
Wed 02:35:53 PM 22.8330 113.6860 152° Southeast 180 207 3,200 -577 Descending FlightAware ADS-B
Wed 02:36:16 PM 22.8160 113.6960 152° Southeast 178 205 3,000 -439 Descending FlightAware ADS-B
Wed 02:36:34 PM 22.8030 113.7040 150° Southeast 179 206 2,900 -500 Descending FlightAware ADS-B
Wed 02:36:52 PM 22.7890 113.7110 155° Southeast 179 206 2,700 -383 Descending FlightAware ADS-B
Wed 02:37:21 PM 22.7690 113.7220 153° Southeast 167 192 2,600 -508 Descending FlightAware ADS-B
Wed 02:37:51 PM 22.7480 113.7330 154° Southeast 148 170 2,200 -667 Descending FlightAware ADS-B
Wed 02:38:15 PM 22.7350 113.7410 150° Southeast 139 160 2,000 -625 Descending FlightAware ADS-B
Wed 02:38:39 PM 22.7210 113.7480 155° Southeast 137 158 1,700 -720 Descending FlightAware ADS-B
Wed 02:39:05 PM 22.7060 113.7570 151° Southeast 136 157 1,400 -750 Descending FlightAware ADS-B
Wed 02:39:35 PM 22.6880 113.7660 155° Southeast 140 161 1,000 -778 Descending FlightAware ADS-B
Wed 02:39:59 PM 22.6740 113.7740 152° Southeast 143 165 700 -750 Descending FlightAware ADS-B
Wed 02:40:15 PM 22.6640 113.7800 151° Southeast 146 168 500 -750 Descending FlightAware ADS-B
Wed 02:40:44 PM 22.6470 113.7890 154° Southeast 140 161 -1,034 Descending FlightAware ADS-B
Wed 02:41:00 PM 22.6400 113.7930 152° Southeast 82 94  Level FlightAware ADS-B
Wed 02:41:28 PM 22.6350 113.7960 151° Southeast 24 28  Level FlightAware ADS-B
Wed 02:44:00 PM 22.6395 113.8124 74° East  Level Estimated

Login

Don't have an account? Register now (free) for customized features, flight alerts, and more!